createdAt,value
2023-03-20T00:05:53.877Z,1016.84
2023-03-20T00:15:59.465Z,1016.85
2023-03-20T00:26:05.320Z,1016.85
2023-03-20T00:36:10.763Z,1016.81
2023-03-20T00:46:15.954Z,1016.70
2023-03-20T00:56:21.268Z,1016.70
2023-03-20T01:06:26.625Z,1016.67
2023-03-20T01:16:31.941Z,1016.72
2023-03-20T01:26:37.316Z,1016.72
2023-03-20T01:36:42.296Z,1016.79
2023-03-20T01:46:47.743Z,1016.78
2023-03-20T01:56:52.937Z,1016.75
2023-03-20T02:06:58.313Z,1016.68
2023-03-20T02:17:03.548Z,1016.86
2023-03-20T02:27:08.924Z,1016.88
2023-03-20T02:37:14.273Z,1016.83
2023-03-20T02:47:19.225Z,1016.80
2023-03-20T02:57:24.467Z,1016.82
2023-03-20T03:07:29.801Z,1016.85
2023-03-20T03:17:34.830Z,1016.79
2023-03-20T03:27:40.225Z,1016.85
2023-03-20T03:37:45.464Z,1016.85
2023-03-20T03:47:50.816Z,1016.88
2023-03-20T03:57:56.052Z,1016.92
2023-03-20T04:08:01.129Z,1016.90
2023-03-20T04:18:06.524Z,1016.97
2023-03-20T04:28:12.020Z,1017.08
2023-03-20T04:38:17.618Z,1017.26
2023-03-20T04:48:23.095Z,1017.23
2023-03-20T04:58:28.466Z,1017.25
2023-03-20T05:08:34.248Z,1017.20
2023-03-20T05:18:39.600Z,1017.23
2023-03-20T05:28:44.636Z,1017.18
2023-03-20T05:38:49.648Z,1017.27
2023-03-20T05:48:54.853Z,1017.26
2023-03-20T05:58:59.984Z,1017.23
2023-03-20T06:09:05.120Z,1017.35
2023-03-20T06:19:10.314Z,1017.46
2023-03-20T06:29:15.485Z,1017.56
2023-03-20T06:39:21.022Z,1017.72
2023-03-20T06:49:26.497Z,1017.87
2023-03-20T06:59:31.779Z,1018.00
2023-03-20T07:09:36.912Z,1018.14
2023-03-20T07:19:42.167Z,1018.19
2023-03-20T07:29:47.821Z,1018.20
2023-03-20T07:39:53.041Z,1018.29
2023-03-20T07:49:58.199Z,1018.46
2023-03-20T08:00:03.432Z,1018.39
2023-03-20T08:10:08.743Z,1018.52
2023-03-20T08:20:14.014Z,1018.56
2023-03-20T08:30:19.163Z,1018.63
2023-03-20T08:40:24.251Z,1018.79
2023-03-20T08:50:29.515Z,1018.83
2023-03-20T09:00:34.880Z,1018.71
2023-03-20T09:10:40.604Z,1018.71
2023-03-20T09:20:45.854Z,1018.77
2023-03-20T09:30:51.482Z,1018.74
2023-03-20T09:40:56.345Z,1018.80
2023-03-20T09:51:01.585Z,1018.74
2023-03-20T10:01:06.908Z,1018.73
2023-03-20T10:11:12.309Z,1018.82
2023-03-20T10:21:17.622Z,1018.89
2023-03-20T10:31:22.916Z,1018.75
2023-03-20T10:41:28.580Z,1018.74
2023-03-20T10:51:33.693Z,1018.71
2023-03-20T11:01:39.271Z,1018.72
2023-03-20T11:11:44.360Z,1018.71
2023-03-20T11:21:49.952Z,1018.67
2023-03-20T11:31:55.966Z,1018.61
2023-03-20T11:42:01.649Z,1018.55
2023-03-20T11:52:06.795Z,1018.48
2023-03-20T12:02:11.959Z,1018.30
2023-03-20T12:12:17.701Z,1018.27
2023-03-20T12:22:23.078Z,1018.20
2023-03-20T12:32:28.853Z,1018.10
2023-03-20T12:42:34.256Z,1017.96
2023-03-20T12:52:39.115Z,1017.95
2023-03-20T13:02:44.238Z,1017.92
2023-03-20T13:12:49.689Z,1017.78
2023-03-20T13:22:54.945Z,1017.86
2023-03-20T13:33:00.484Z,1017.75
2023-03-20T13:43:05.971Z,1017.62
2023-03-20T13:53:11.140Z,1017.57
2023-03-20T14:03:16.261Z,1017.60
2023-03-20T14:13:21.374Z,1017.56
2023-03-20T14:23:26.822Z,1017.53
2023-03-20T14:33:32.873Z,1017.49
2023-03-20T14:43:38.614Z,1017.54
2023-03-20T14:53:44.047Z,1017.53
2023-03-20T15:03:50.306Z,1017.39
2023-03-20T15:13:56.300Z,1017.38
2023-03-20T15:24:01.523Z,1017.28
2023-03-20T15:34:07.159Z,1017.17
2023-03-20T15:44:12.589Z,1017.15
2023-03-20T15:54:18.220Z,1017.23
2023-03-20T16:04:23.469Z,1017.26
2023-03-20T16:14:28.745Z,1017.34
2023-03-20T16:24:34.127Z,1017.42
2023-03-20T16:34:39.774Z,1017.40
2023-03-20T16:44:45.053Z,1017.38
2023-03-20T16:54:50.498Z,1017.41
2023-03-20T17:04:56.116Z,1017.40
2023-03-20T17:15:01.475Z,1017.52
2023-03-20T17:25:06.853Z,1017.61
2023-03-20T17:35:14.210Z,1017.60
2023-03-20T17:45:20.944Z,1017.62
2023-03-20T17:55:26.490Z,1017.69
2023-03-20T18:05:31.885Z,1017.70
2023-03-20T18:15:37.287Z,1017.69
2023-03-20T18:25:43.141Z,1017.69
2023-03-20T18:35:48.790Z,1017.66
2023-03-20T18:45:54.551Z,1017.69
2023-03-20T18:55:59.788Z,1017.73
2023-03-20T19:06:08.019Z,1017.75
2023-03-20T19:16:14.925Z,1017.73
2023-03-20T19:26:20.152Z,1017.75
2023-03-20T19:36:26.074Z,1017.74
2023-03-20T19:46:41.188Z,1017.76
2023-03-20T19:56:41.741Z,1017.74
2023-03-20T20:06:47.690Z,1017.74
2023-03-20T20:16:53.340Z,1017.75
2023-03-20T20:27:17.084Z,1017.78
2023-03-20T20:47:19.993Z,1017.63
2023-03-20T20:57:25.479Z,1017.72
2023-03-20T21:07:31.172Z,1017.73
2023-03-20T21:17:37.226Z,1017.58
2023-03-20T21:27:43.885Z,1017.53
2023-03-20T21:38:37.822Z,1017.66
2023-03-20T21:58:50.894Z,1017.84
2023-03-20T22:29:24.587Z,1017.86
2023-03-20T22:49:01.772Z,1017.85
2023-03-20T22:59:06.966Z,1017.80
2023-03-20T23:09:15.209Z,1017.88
2023-03-20T23:19:20.980Z,1017.88
2023-03-20T23:29:26.385Z,1017.93
2023-03-20T23:39:31.834Z,1017.86
2023-03-20T23:49:37.825Z,1017.86
2023-03-20T23:59:43.025Z,1017.84
